sensor_id;sensor_type;location;lat;lon;timestamp;temperature;humidity
55207;DHT22;41079;52.856;6.534;2022-09-16T00:01:15;11.20;99.90
55207;DHT22;41079;52.856;6.534;2022-09-16T00:03:41;11.20;99.90
55207;DHT22;41079;52.856;6.534;2022-09-16T00:06:20;11.20;99.90
55207;DHT22;41079;52.856;6.534;2022-09-16T00:08:47;11.20;99.90
55207;DHT22;41079;52.856;6.534;2022-09-16T00:11:13;11.20;99.90
55207;DHT22;41079;52.856;6.534;2022-09-16T00:13:39;11.20;99.90
55207;DHT22;41079;52.856;6.534;2022-09-16T00:16:18;11.20;99.90
55207;DHT22;41079;52.856;6.534;2022-09-16T00:18:44;11.10;99.90
55207;DHT22;41079;52.856;6.534;2022-09-16T00:21:10;11.10;99.90
55207;DHT22;41079;52.856;6.534;2022-09-16T00:23:36;11.10;99.90
55207;DHT22;41079;52.856;6.534;2022-09-16T00:26:03;11.20;99.90
55207;DHT22;41079;52.856;6.534;2022-09-16T00:28:29;11.20;99.90
55207;DHT22;41079;52.856;6.534;2022-09-16T00:30:58;11.20;99.90
55207;DHT22;41079;52.856;6.534;2022-09-16T00:33:24;11.20;99.90
55207;DHT22;41079;52.856;6.534;2022-09-16T00:35:50;11.30;99.90
55207;DHT22;41079;52.856;6.534;2022-09-16T00:38:15;11.30;99.90
55207;DHT22;41079;52.856;6.534;2022-09-16T00:40:46;11.30;99.90
55207;DHT22;41079;52.856;6.534;2022-09-16T00:43:17;11.30;99.90
55207;DHT22;41079;52.856;6.534;2022-09-16T00:45:46;11.30;99.90
55207;DHT22;41079;52.856;6.534;2022-09-16T00:48:22;11.40;99.90
55207;DHT22;41079;52.856;6.534;2022-09-16T00:50:55;11.40;99.90
55207;DHT22;41079;52.856;6.534;2022-09-16T00:53:28;11.40;99.90
55207;DHT22;41079;52.856;6.534;2022-09-16T00:55:56;11.50;99.90
55207;DHT22;41079;52.856;6.534;2022-09-16T00:58:28;11.50;99.90
55207;DHT22;41079;52.856;6.534;2022-09-16T01:00:57;11.50;99.90
55207;DHT22;41079;52.856;6.534;2022-09-16T01:03:24;11.50;99.90
55207;DHT22;41079;52.856;6.534;2022-09-16T01:05:51;11.50;99.90
55207;DHT22;41079;52.856;6.534;2022-09-16T01:08:16;11.50;99.90
55207;DHT22;41079;52.856;6.534;2022-09-16T01:10:42;11.50;99.90
55207;DHT22;41079;52.856;6.534;2022-09-16T01:13:11;11.50;99.90
55207;DHT22;41079;52.856;6.534;2022-09-16T01:15:58;11.40;99.90
55207;DHT22;41079;52.856;6.534;2022-09-16T01:18:39;11.40;99.90
55207;DHT22;41079;52.856;6.534;2022-09-16T01:32:16;11.30;99.90
55207;DHT22;41079;52.856;6.534;2022-09-16T01:34:55;11.20;99.90
55207;DHT22;41079;52.856;6.534;2022-09-16T01:40:15;11.20;99.90
55207;DHT22;41079;52.856;6.534;2022-09-16T01:43:03;11.20;99.90
55207;DHT22;41079;52.856;6.534;2022-09-16T01:45:40;11.20;99.90
55207;DHT22;41079;52.856;6.534;2022-09-16T01:48:18;11.20;99.90
55207;DHT22;41079;52.856;6.534;2022-09-16T01:51:07;11.20;99.90
55207;DHT22;41079;52.856;6.534;2022-09-16T01:53:58;11.20;99.90
55207;DHT22;41079;52.856;6.534;2022-09-16T01:56:43;11.20;99.90
55207;DHT22;41079;52.856;6.534;2022-09-16T02:01:49;11.20;99.90
55207;DHT22;41079;52.856;6.534;2022-09-16T02:04:22;11.20;99.90
55207;DHT22;41079;52.856;6.534;2022-09-16T02:06:50;11.20;99.90
55207;DHT22;41079;52.856;6.534;2022-09-16T02:09:22;11.20;99.90
55207;DHT22;41079;52.856;6.534;2022-09-16T02:11:52;11.20;99.90
55207;DHT22;41079;52.856;6.534;2022-09-16T02:14:24;11.20;99.90
55207;DHT22;41079;52.856;6.534;2022-09-16T02:17:01;11.20;99.90
55207;DHT22;41079;52.856;6.534;2022-09-16T02:19:35;11.20;99.90
55207;DHT22;41079;52.856;6.534;2022-09-16T02:22:06;11.10;99.90
55207;DHT22;41079;52.856;6.534;2022-09-16T02:24:33;11.10;99.90
55207;DHT22;41079;52.856;6.534;2022-09-16T02:27:04;11.00;99.90
55207;DHT22;41079;52.856;6.534;2022-09-16T02:29:36;11.00;99.90
55207;DHT22;41079;52.856;6.534;2022-09-16T02:32:05;11.00;99.90
55207;DHT22;41079;52.856;6.534;2022-09-16T02:34:38;10.90;99.90
55207;DHT22;41079;52.856;6.534;2022-09-16T02:37:09;10.80;99.90
55207;DHT22;41079;52.856;6.534;2022-09-16T02:39:38;10.80;99.90
55207;DHT22;41079;52.856;6.534;2022-09-16T02:42:05;10.80;99.90
55207;DHT22;41079;52.856;6.534;2022-09-16T02:44:31;10.70;99.90
55207;DHT22;41079;52.856;6.534;2022-09-16T02:47:04;10.70;99.90
55207;DHT22;41079;52.856;6.534;2022-09-16T02:52:35;10.60;99.90
55207;DHT22;41079;52.856;6.534;2022-09-16T02:57:45;10.50;99.90
55207;DHT22;41079;52.856;6.534;2022-09-16T03:00:11;10.60;99.90
55207;DHT22;41079;52.856;6.534;2022-09-16T03:02:37;10.60;99.90
55207;DHT22;41079;52.856;6.534;2022-09-16T03:05:03;10.60;99.90
55207;DHT22;41079;52.856;6.534;2022-09-16T03:07:29;10.70;99.90
55207;DHT22;41079;52.856;6.534;2022-09-16T03:09:55;10.70;99.90
55207;DHT22;41079;52.856;6.534;2022-09-16T03:13:01;10.80;99.90
55207;DHT22;41079;52.856;6.534;2022-09-16T03:15:43;10.80;99.90
55207;DHT22;41079;52.856;6.534;2022-09-16T03:18:31;10.90;99.90
55207;DHT22;41079;52.856;6.534;2022-09-16T03:22:05;10.90;99.90
55207;DHT22;41079;52.856;6.534;2022-09-16T03:24:44;10.90;99.90
55207;DHT22;41079;52.856;6.534;2022-09-16T03:27:28;10.90;99.90
55207;DHT22;41079;52.856;6.534;2022-09-16T03:30:04;10.90;99.90
55207;DHT22;41079;52.856;6.534;2022-09-16T03:32:35;10.90;99.90
55207;DHT22;41079;52.856;6.534;2022-09-16T03:35:12;10.90;99.90
55207;DHT22;41079;52.856;6.534;2022-09-16T03:37:42;10.90;99.90
55207;DHT22;41079;52.856;6.534;2022-09-16T03:40:12;10.80;99.90
55207;DHT22;41079;52.856;6.534;2022-09-16T03:42:40;10.80;99.90
55207;DHT22;41079;52.856;6.534;2022-09-16T03:45:07;10.80;99.90
55207;DHT22;41079;52.856;6.534;2022-09-16T03:47:34;10.80;99.90
55207;DHT22;41079;52.856;6.534;2022-09-16T03:49:59;10.80;99.90
55207;DHT22;41079;52.856;6.534;2022-09-16T03:52:25;10.80;99.90
55207;DHT22;41079;52.856;6.534;2022-09-16T03:54:50;10.80;99.90
55207;DHT22;41079;52.856;6.534;2022-09-16T03:57:16;10.80;99.90
55207;DHT22;41079;52.856;6.534;2022-09-16T03:59:41;10.90;99.90
55207;DHT22;41079;52.856;6.534;2022-09-16T04:02:07;10.90;99.90
55207;DHT22;41079;52.856;6.534;2022-09-16T04:04:32;10.90;99.90
55207;DHT22;41079;52.856;6.534;2022-09-16T04:06:58;10.90;99.90
55207;DHT22;41079;52.856;6.534;2022-09-16T04:09:24;10.80;99.90
55207;DHT22;41079;52.856;6.534;2022-09-16T04:11:49;10.70;99.90
55207;DHT22;41079;52.856;6.534;2022-09-16T04:14:15;10.70;99.90
55207;DHT22;41079;52.856;6.534;2022-09-16T04:16:40;10.60;99.90
55207;DHT22;41079;52.856;6.534;2022-09-16T04:19:06;10.50;99.90
55207;DHT22;41079;52.856;6.534;2022-09-16T04:21:32;10.50;99.90
55207;DHT22;41079;52.856;6.534;2022-09-16T04:23:58;10.40;99.90
55207;DHT22;41079;52.856;6.534;2022-09-16T04:26:24;10.40;99.90
55207;DHT22;41079;52.856;6.534;2022-09-16T04:28:53;10.30;99.90
55207;DHT22;41079;52.856;6.534;2022-09-16T04:31:21;10.30;99.90
55207;DHT22;41079;52.856;6.534;2022-09-16T04:33:46;10.30;99.90
55207;DHT22;41079;52.856;6.534;2022-09-16T04:36:14;10.40;99.90
55207;DHT22;41079;52.856;6.534;2022-09-16T04:38:42;10.40;99.90
55207;DHT22;41079;52.856;6.534;2022-09-16T04:41:14;10.40;99.90
55207;DHT22;41079;52.856;6.534;2022-09-16T04:43:40;10.40;99.90
55207;DHT22;41079;52.856;6.534;2022-09-16T04:46:06;10.40;99.90
55207;DHT22;41079;52.856;6.534;2022-09-16T04:48:32;10.40;99.90
55207;DHT22;41079;52.856;6.534;2022-09-16T04:53:28;10.30;99.90
55207;DHT22;41079;52.856;6.534;2022-09-16T04:56:00;10.30;99.90
55207;DHT22;41079;52.856;6.534;2022-09-16T04:58:28;10.30;99.90
55207;DHT22;41079;52.856;6.534;2022-09-16T05:00:53;10.30;99.90
55207;DHT22;41079;52.856;6.534;2022-09-16T05:03:19;10.30;99.90
55207;DHT22;41079;52.856;6.534;2022-09-16T05:05:44;10.30;99.90
55207;DHT22;41079;52.856;6.534;2022-09-16T05:08:10;10.30;99.90
55207;DHT22;41079;52.856;6.534;2022-09-16T05:10:36;10.30;99.90
55207;DHT22;41079;52.856;6.534;2022-09-16T05:13:02;10.20;99.90
55207;DHT22;41079;52.856;6.534;2022-09-16T05:15:27;10.20;99.90
55207;DHT22;41079;52.856;6.534;2022-09-16T05:17:53;10.20;99.90
55207;DHT22;41079;52.856;6.534;2022-09-16T05:20:19;10.20;99.90
55207;DHT22;41079;52.856;6.534;2022-09-16T05:22:47;10.10;99.90
55207;DHT22;41079;52.856;6.534;2022-09-16T05:25:12;10.10;99.90
55207;DHT22;41079;52.856;6.534;2022-09-16T05:27:38;10.10;99.90
55207;DHT22;41079;52.856;6.534;2022-09-16T05:30:04;10.10;99.90
55207;DHT22;41079;52.856;6.534;2022-09-16T05:32:29;10.10;99.90
55207;DHT22;41079;52.856;6.534;2022-09-16T05:34:55;10.10;99.90
55207;DHT22;41079;52.856;6.534;2022-09-16T05:37:20;10.10;99.90
55207;DHT22;41079;52.856;6.534;2022-09-16T05:39:46;10.10;99.90
55207;DHT22;41079;52.856;6.534;2022-09-16T05:42:11;10.20;99.90
55207;DHT22;41079;52.856;6.534;2022-09-16T05:44:37;10.20;99.90
55207;DHT22;41079;52.856;6.534;2022-09-16T05:47:03;10.30;99.90
55207;DHT22;41079;52.856;6.534;2022-09-16T05:49:28;10.50;99.90
55207;DHT22;41079;52.856;6.534;2022-09-16T05:51:54;10.80;99.90
55207;DHT22;41079;52.856;6.534;2022-09-16T05:54:20;11.20;99.90
55207;DHT22;41079;52.856;6.534;2022-09-16T05:56:48;11.60;99.90
55207;DHT22;41079;52.856;6.534;2022-09-16T05:59:15;11.70;99.90
55207;DHT22;41079;52.856;6.534;2022-09-16T06:01:40;11.60;99.90
55207;DHT22;41079;52.856;6.534;2022-09-16T06:04:10;11.50;99.90
55207;DHT22;41079;52.856;6.534;2022-09-16T06:06:38;11.40;99.90
55207;DHT22;41079;52.856;6.534;2022-09-16T06:11:34;11.30;99.90
55207;DHT22;41079;52.856;6.534;2022-09-16T06:14:00;11.30;99.90
55207;DHT22;41079;52.856;6.534;2022-09-16T06:23:54;11.60;99.90
55207;DHT22;41079;52.856;6.534;2022-09-16T06:26:24;11.60;99.90
55207;DHT22;41079;52.856;6.534;2022-09-16T06:28:50;11.50;99.90
55207;DHT22;41079;52.856;6.534;2022-09-16T06:33:45;11.50;99.90
55207;DHT22;41079;52.856;6.534;2022-09-16T06:36:13;11.40;99.90
55207;DHT22;41079;52.856;6.534;2022-09-16T06:38:39;11.50;99.90
55207;DHT22;41079;52.856;6.534;2022-09-16T06:41:07;11.50;99.90
55207;DHT22;41079;52.856;6.534;2022-09-16T06:43:33;11.70;99.90
55207;DHT22;41079;52.856;6.534;2022-09-16T06:46:05;11.90;99.90
55207;DHT22;41079;52.856;6.534;2022-09-16T06:48:32;12.10;99.90
55207;DHT22;41079;52.856;6.534;2022-09-16T06:51:20;12.20;99.90
55207;DHT22;41079;52.856;6.534;2022-09-16T06:53:48;12.30;99.90
55207;DHT22;41079;52.856;6.534;2022-09-16T06:56:16;12.40;99.90
55207;DHT22;41079;52.856;6.534;2022-09-16T06:58:44;12.50;99.90
55207;DHT22;41079;52.856;6.534;2022-09-16T07:01:14;12.60;99.90
55207;DHT22;41079;52.856;6.534;2022-09-16T07:03:43;12.70;99.90
55207;DHT22;41079;52.856;6.534;2022-09-16T07:06:10;12.90;99.90
55207;DHT22;41079;52.856;6.534;2022-09-16T07:08:36;13.00;99.90
55207;DHT22;41079;52.856;6.534;2022-09-16T07:11:08;13.00;99.90
55207;DHT22;41079;52.856;6.534;2022-09-16T07:13:34;13.10;99.90
55207;DHT22;41079;52.856;6.534;2022-09-16T07:16:06;13.20;99.90
55207;DHT22;41079;52.856;6.534;2022-09-16T07:18:32;13.40;99.90
55207;DHT22;41079;52.856;6.534;2022-09-16T07:21:13;13.50;99.90
55207;DHT22;41079;52.856;6.534;2022-09-16T07:23:40;13.70;99.90
55207;DHT22;41079;52.856;6.534;2022-09-16T07:28:33;13.80;99.90
55207;DHT22;41079;52.856;6.534;2022-09-16T07:31:01;13.90;99.90
55207;DHT22;41079;52.856;6.534;2022-09-16T07:33:27;13.90;99.90
55207;DHT22;41079;52.856;6.534;2022-09-16T07:35:57;14.20;99.90
55207;DHT22;41079;52.856;6.534;2022-09-16T07:38:23;14.20;99.90
55207;DHT22;41079;52.856;6.534;2022-09-16T07:40:48;14.40;99.90
55207;DHT22;41079;52.856;6.534;2022-09-16T07:43:14;14.50;99.90
55207;DHT22;41079;52.856;6.534;2022-09-16T07:45:39;14.60;99.90
55207;DHT22;41079;52.856;6.534;2022-09-16T07:48:05;14.70;99.90
55207;DHT22;41079;52.856;6.534;2022-09-16T07:50:30;14.80;99.90
55207;DHT22;41079;52.856;6.534;2022-09-16T07:52:56;14.90;99.90
55207;DHT22;41079;52.856;6.534;2022-09-16T07:55:21;15.10;99.90
55207;DHT22;41079;52.856;6.534;2022-09-16T07:57:47;15.10;99.90
55207;DHT22;41079;52.856;6.534;2022-09-16T08:00:12;15.20;99.90
55207;DHT22;41079;52.856;6.534;2022-09-16T08:02:40;15.20;99.90
55207;DHT22;41079;52.856;6.534;2022-09-16T08:05:06;15.30;99.90
55207;DHT22;41079;52.856;6.534;2022-09-16T08:07:36;15.40;99.90
55207;DHT22;41079;52.856;6.534;2022-09-16T08:12:29;15.70;99.90
55207;DHT22;41079;52.856;6.534;2022-09-16T08:14:58;15.80;99.90
55207;DHT22;41079;52.856;6.534;2022-09-16T08:17:25;16.10;99.90
55207;DHT22;41079;52.856;6.534;2022-09-16T08:19:51;16.00;99.90
55207;DHT22;41079;52.856;6.534;2022-09-16T08:22:16;16.10;99.90
55207;DHT22;41079;52.856;6.534;2022-09-16T08:24:42;16.20;99.90
55207;DHT22;41079;52.856;6.534;2022-09-16T08:27:07;16.30;99.90
55207;DHT22;41079;52.856;6.534;2022-09-16T08:29:33;16.40;99.90
55207;DHT22;41079;52.856;6.534;2022-09-16T08:31:59;16.40;99.90
55207;DHT22;41079;52.856;6.534;2022-09-16T08:34:24;16.40;99.90
55207;DHT22;41079;52.856;6.534;2022-09-16T08:36:50;16.50;99.90
55207;DHT22;41079;52.856;6.534;2022-09-16T08:39:16;16.60;99.90
55207;DHT22;41079;52.856;6.534;2022-09-16T08:44:50;16.80;99.90
55207;DHT22;41079;52.856;6.534;2022-09-16T08:48:25;16.60;99.90
55207;DHT22;41079;52.856;6.534;2022-09-16T08:50:18;16.60;99.90
55207;DHT22;41079;52.856;6.534;2022-09-16T08:52:46;16.80;99.90
55207;DHT22;41079;52.856;6.534;2022-09-16T08:55:23;17.10;99.90
55207;DHT22;41079;52.856;6.534;2022-09-16T09:00:22;16.90;98.50
55207;DHT22;41079;52.856;6.534;2022-09-16T09:05:26;16.60;98.40
55207;DHT22;41079;52.856;6.534;2022-09-16T09:10:48;16.30;94.70
55207;DHT22;41079;52.856;6.534;2022-09-16T09:19:08;16.30;94.50
55207;DHT22;41079;52.856;6.534;2022-09-16T09:25:07;16.90;91.70
55207;DHT22;41079;52.856;6.534;2022-09-16T09:31:11;17.00;90.80
55207;DHT22;41079;52.856;6.534;2022-09-16T09:34:15;17.10;90.10
55207;DHT22;41079;52.856;6.534;2022-09-16T09:36:47;17.20;88.80
55207;DHT22;41079;52.856;6.534;2022-09-16T09:42:18;17.30;87.50
55207;DHT22;41079;52.856;6.534;2022-09-16T09:45:10;17.40;86.50
55207;DHT22;41079;52.856;6.534;2022-09-16T09:47:47;17.50;85.30
55207;DHT22;41079;52.856;6.534;2022-09-16T09:50:21;17.60;83.40
55207;DHT22;41079;52.856;6.534;2022-09-16T09:52:58;17.80;78.40
55207;DHT22;41079;52.856;6.534;2022-09-16T09:55:31;17.70;79.70
55207;DHT22;41079;52.856;6.534;2022-09-16T09:58:03;17.70;79.50
55207;DHT22;41079;52.856;6.534;2022-09-16T10:00:29;17.80;76.10
55207;DHT22;41079;52.856;6.534;2022-09-16T10:03:04;17.80;78.90
55207;DHT22;41079;52.856;6.534;2022-09-16T10:05:30;18.00;82.00
55207;DHT22;41079;52.856;6.534;2022-09-16T10:08:29;18.20;76.10
55207;DHT22;41079;52.856;6.534;2022-09-16T10:10:59;18.10;76.10
55207;DHT22;41079;52.856;6.534;2022-09-16T10:13:27;18.10;76.20
55207;DHT22;41079;52.856;6.534;2022-09-16T10:16:10;17.90;76.10
55207;DHT22;41079;52.856;6.534;2022-09-16T10:18:37;17.60;75.20
55207;DHT22;41079;52.856;6.534;2022-09-16T10:21:10;17.40;78.20
55207;DHT22;41079;52.856;6.534;2022-09-16T10:23:36;17.20;79.60
55207;DHT22;41079;52.856;6.534;2022-09-16T10:28:30;15.90;93.20
55207;DHT22;41079;52.856;6.534;2022-09-16T10:30:57;14.90;99.50
55207;DHT22;41079;52.856;6.534;2022-09-16T10:33:24;14.30;99.90
55207;DHT22;41079;52.856;6.534;2022-09-16T10:35:55;14.20;99.90
55207;DHT22;41079;52.856;6.534;2022-09-16T10:38:24;14.40;99.90
55207;DHT22;41079;52.856;6.534;2022-09-16T10:41:14;14.80;99.90
55207;DHT22;41079;52.856;6.534;2022-09-16T10:43:47;15.30;99.90
55207;DHT22;41079;52.856;6.534;2022-09-16T10:46:14;15.70;99.90
55207;DHT22;41079;52.856;6.534;2022-09-16T10:48:41;16.00;99.90
55207;DHT22;41079;52.856;6.534;2022-09-16T10:51:22;16.40;98.70
55207;DHT22;41079;52.856;6.534;2022-09-16T10:53:53;16.50;99.30
55207;DHT22;41079;52.856;6.534;2022-09-16T10:56:22;16.80;99.20
55207;DHT22;41079;52.856;6.534;2022-09-16T10:58:48;17.20;97.80
55207;DHT22;41079;52.856;6.534;2022-09-16T11:01:39;17.40;96.70
55207;DHT22;41079;52.856;6.534;2022-09-16T11:04:48;17.40;95.70
55207;DHT22;41079;52.856;6.534;2022-09-16T11:21:05;17.80;92.90
55207;DHT22;41079;52.856;6.534;2022-09-16T11:26:44;18.30;90.60
55207;DHT22;41079;52.856;6.534;2022-09-16T11:32:29;17.80;89.80
55207;DHT22;41079;52.856;6.534;2022-09-16T11:40:45;18.40;85.60
55207;DHT22;41079;52.856;6.534;2022-09-16T11:54:37;17.20;89.30
55207;DHT22;41079;52.856;6.534;2022-09-16T11:57:07;16.50;92.20
55207;DHT22;41079;52.856;6.534;2022-09-16T11:59:47;16.00;94.50
55207;DHT22;41079;52.856;6.534;2022-09-16T12:02:35;16.20;96.60
55207;DHT22;41079;52.856;6.534;2022-09-16T12:05:22;16.70;95.50
55207;DHT22;41079;52.856;6.534;2022-09-16T12:08:00;17.40;94.50
55207;DHT22;41079;52.856;6.534;2022-09-16T12:10:47;17.90;95.10
55207;DHT22;41079;52.856;6.534;2022-09-16T12:16:08;18.90;80.80
55207;DHT22;41079;52.856;6.534;2022-09-16T12:30:16;15.10;98.10
55207;DHT22;41079;52.856;6.534;2022-09-16T12:32:53;14.70;99.20
55207;DHT22;41079;52.856;6.534;2022-09-16T12:35:33;14.60;99.90
55207;DHT22;41079;52.856;6.534;2022-09-16T12:38:01;14.80;99.90
55207;DHT22;41079;52.856;6.534;2022-09-16T12:40:51;15.20;99.90
55207;DHT22;41079;52.856;6.534;2022-09-16T12:46:13;16.40;99.90
55207;DHT22;41079;52.856;6.534;2022-09-16T12:57:33;17.60;97.30
55207;DHT22;41079;52.856;6.534;2022-09-16T13:00:10;17.50;96.80
55207;DHT22;41079;52.856;6.534;2022-09-16T13:02:46;17.10;94.70
55207;DHT22;41079;52.856;6.534;2022-09-16T13:07:52;16.90;94.30
55207;DHT22;41079;52.856;6.534;2022-09-16T13:10:31;17.10;93.80
55207;DHT22;41079;52.856;6.534;2022-09-16T13:13:00;17.40;92.70
55207;DHT22;41079;52.856;6.534;2022-09-16T13:15:31;17.60;92.20
55207;DHT22;41079;52.856;6.534;2022-09-16T13:20:57;17.90;91.70
55207;DHT22;41079;52.856;6.534;2022-09-16T13:23:27;18.10;93.00
55207;DHT22;41079;52.856;6.534;2022-09-16T13:26:05;18.30;90.90
55207;DHT22;41079;52.856;6.534;2022-09-16T13:33:35;17.50;90.30
55207;DHT22;41079;52.856;6.534;2022-09-16T13:38:50;17.30;91.30
55207;DHT22;41079;52.856;6.534;2022-09-16T13:43:54;17.40;93.00
55207;DHT22;41079;52.856;6.534;2022-09-16T13:46:36;17.50;92.40
55207;DHT22;41079;52.856;6.534;2022-09-16T13:51:37;17.50;93.80
55207;DHT22;41079;52.856;6.534;2022-09-16T13:54:27;17.40;94.30
55207;DHT22;41079;52.856;6.534;2022-09-16T14:06:14;16.80;95.50
55207;DHT22;41079;52.856;6.534;2022-09-16T14:11:45;16.70;96.30
55207;DHT22;41079;52.856;6.534;2022-09-16T14:14:16;16.20;96.60
55207;DHT22;41079;52.856;6.534;2022-09-16T14:16:45;15.40;99.90
55207;DHT22;41079;52.856;6.534;2022-09-16T14:21:59;14.60;99.90
55207;DHT22;41079;52.856;6.534;2022-09-16T14:24:24;14.20;99.90
55207;DHT22;41079;52.856;6.534;2022-09-16T14:26:55;14.00;99.90
55207;DHT22;41079;52.856;6.534;2022-09-16T14:29:22;14.00;99.90
55207;DHT22;41079;52.856;6.534;2022-09-16T14:31:51;13.90;99.90
55207;DHT22;41079;52.856;6.534;2022-09-16T14:34:30;13.80;99.90
55207;DHT22;41079;52.856;6.534;2022-09-16T14:36:57;13.80;99.90
55207;DHT22;41079;52.856;6.534;2022-09-16T14:39:24;13.80;99.90
55207;DHT22;41079;52.856;6.534;2022-09-16T14:41:51;13.80;99.90
55207;DHT22;41079;52.856;6.534;2022-09-16T14:46:46;13.90;99.90
55207;DHT22;41079;52.856;6.534;2022-09-16T14:49:13;14.00;99.90
55207;DHT22;41079;52.856;6.534;2022-09-16T14:51:45;14.10;99.90
55207;DHT22;41079;52.856;6.534;2022-09-16T14:54:17;14.20;99.90
55207;DHT22;41079;52.856;6.534;2022-09-16T14:56:57;14.30;99.90
55207;DHT22;41079;52.856;6.534;2022-09-16T14:59:34;14.40;99.90
55207;DHT22;41079;52.856;6.534;2022-09-16T15:02:11;14.40;99.90
55207;DHT22;41079;52.856;6.534;2022-09-16T15:04:40;14.40;99.90
55207;DHT22;41079;52.856;6.534;2022-09-16T15:07:12;14.60;99.90
55207;DHT22;41079;52.856;6.534;2022-09-16T15:09:42;14.60;99.90
55207;DHT22;41079;52.856;6.534;2022-09-16T15:12:17;14.60;99.90
55207;DHT22;41079;52.856;6.534;2022-09-16T15:14:44;14.60;99.90
55207;DHT22;41079;52.856;6.534;2022-09-16T15:17:16;14.50;99.90
55207;DHT22;41079;52.856;6.534;2022-09-16T15:19:54;14.60;99.90
55207;DHT22;41079;52.856;6.534;2022-09-16T15:22:21;14.50;99.90
55207;DHT22;41079;52.856;6.534;2022-09-16T15:24:51;14.50;99.90
55207;DHT22;41079;52.856;6.534;2022-09-16T15:27:26;14.40;99.90
55207;DHT22;41079;52.856;6.534;2022-09-16T15:29:58;14.30;99.90
55207;DHT22;41079;52.856;6.534;2022-09-16T15:32:26;14.20;99.90
55207;DHT22;41079;52.856;6.534;2022-09-16T15:35:26;14.10;99.90
55207;DHT22;41079;52.856;6.534;2022-09-16T15:37:54;14.10;99.90
55207;DHT22;41079;52.856;6.534;2022-09-16T15:40:30;14.00;99.90
55207;DHT22;41079;52.856;6.534;2022-09-16T15:43:23;13.90;99.90
55207;DHT22;41079;52.856;6.534;2022-09-16T15:46:01;13.70;99.90
55207;DHT22;41079;52.856;6.534;2022-09-16T15:48:50;13.60;99.90
55207;DHT22;41079;52.856;6.534;2022-09-16T15:51:37;13.50;99.90
55207;DHT22;41079;52.856;6.534;2022-09-16T15:54:13;13.40;99.90
55207;DHT22;41079;52.856;6.534;2022-09-16T15:56:56;13.30;99.90
55207;DHT22;41079;52.856;6.534;2022-09-16T16:02:34;13.30;99.90
55207;DHT22;41079;52.856;6.534;2022-09-16T16:05:10;13.20;99.90
55207;DHT22;41079;52.856;6.534;2022-09-16T16:07:42;13.10;99.90
55207;DHT22;41079;52.856;6.534;2022-09-16T16:10:18;13.00;99.90
55207;DHT22;41079;52.856;6.534;2022-09-16T16:12:45;13.00;99.90
55207;DHT22;41079;52.856;6.534;2022-09-16T16:15:11;12.90;99.90
55207;DHT22;41079;52.856;6.534;2022-09-16T16:17:38;12.90;99.90
55207;DHT22;41079;52.856;6.534;2022-09-16T16:20:04;12.80;99.90
55207;DHT22;41079;52.856;6.534;2022-09-16T16:22:29;12.80;99.90
55207;DHT22;41079;52.856;6.534;2022-09-16T16:24:56;12.80;99.90
55207;DHT22;41079;52.856;6.534;2022-09-16T16:27:22;12.80;99.90
55207;DHT22;41079;52.856;6.534;2022-09-16T16:29:48;12.80;99.90
55207;DHT22;41079;52.856;6.534;2022-09-16T16:32:15;12.80;99.90
55207;DHT22;41079;52.856;6.534;2022-09-16T16:34:43;12.80;99.90
55207;DHT22;41079;52.856;6.534;2022-09-16T16:37:10;12.80;99.90
55207;DHT22;41079;52.856;6.534;2022-09-16T16:39:37;12.80;99.90
55207;DHT22;41079;52.856;6.534;2022-09-16T16:42:03;12.80;99.90
55207;DHT22;41079;52.856;6.534;2022-09-16T16:44:30;12.80;99.90
55207;DHT22;41079;52.856;6.534;2022-09-16T16:46:56;12.80;99.90
55207;DHT22;41079;52.856;6.534;2022-09-16T16:49:22;12.80;99.90
55207;DHT22;41079;52.856;6.534;2022-09-16T16:51:50;12.80;99.90
55207;DHT22;41079;52.856;6.534;2022-09-16T16:54:17;12.80;99.90
55207;DHT22;41079;52.856;6.534;2022-09-16T16:56:44;12.90;99.90
55207;DHT22;41079;52.856;6.534;2022-09-16T16:59:10;12.80;99.90
55207;DHT22;41079;52.856;6.534;2022-09-16T17:01:36;12.80;99.90
55207;DHT22;41079;52.856;6.534;2022-09-16T17:04:03;12.80;99.90
55207;DHT22;41079;52.856;6.534;2022-09-16T17:06:30;12.80;99.90
55207;DHT22;41079;52.856;6.534;2022-09-16T17:08:56;12.70;99.90
55207;DHT22;41079;52.856;6.534;2022-09-16T17:11:23;12.70;99.90
55207;DHT22;41079;52.856;6.534;2022-09-16T17:13:51;12.70;99.90
55207;DHT22;41079;52.856;6.534;2022-09-16T17:16:19;12.70;99.90
55207;DHT22;41079;52.856;6.534;2022-09-16T17:18:45;12.60;99.90
55207;DHT22;41079;52.856;6.534;2022-09-16T17:23:41;12.60;99.90
55207;DHT22;41079;52.856;6.534;2022-09-16T17:26:08;12.60;99.90
55207;DHT22;41079;52.856;6.534;2022-09-16T17:28:34;12.60;99.90
55207;DHT22;41079;52.856;6.534;2022-09-16T17:31:01;12.60;99.90
55207;DHT22;41079;52.856;6.534;2022-09-16T17:33:27;12.60;99.90
55207;DHT22;41079;52.856;6.534;2022-09-16T17:36:04;12.60;99.90
55207;DHT22;41079;52.856;6.534;2022-09-16T17:38:30;12.60;99.90
55207;DHT22;41079;52.856;6.534;2022-09-16T17:41:10;12.60;99.90
55207;DHT22;41079;52.856;6.534;2022-09-16T17:43:36;12.50;99.90
55207;DHT22;41079;52.856;6.534;2022-09-16T17:46:05;12.60;99.90
55207;DHT22;41079;52.856;6.534;2022-09-16T17:48:31;12.50;99.90
55207;DHT22;41079;52.856;6.534;2022-09-16T17:50:58;12.50;99.90
55207;DHT22;41079;52.856;6.534;2022-09-16T17:53:24;12.50;99.90
55207;DHT22;41079;52.856;6.534;2022-09-16T17:55:50;12.50;99.90
55207;DHT22;41079;52.856;6.534;2022-09-16T17:58:16;12.50;99.90
55207;DHT22;41079;52.856;6.534;2022-09-16T18:00:42;12.50;99.90
55207;DHT22;41079;52.856;6.534;2022-09-16T18:03:10;12.50;99.90
55207;DHT22;41079;52.856;6.534;2022-09-16T18:05:37;12.50;99.90
55207;DHT22;41079;52.856;6.534;2022-09-16T18:08:03;12.40;99.90
55207;DHT22;41079;52.856;6.534;2022-09-16T18:10:29;12.40;99.90
55207;DHT22;41079;52.856;6.534;2022-09-16T18:12:55;12.40;99.90
55207;DHT22;41079;52.856;6.534;2022-09-16T18:15:23;12.40;99.90
55207;DHT22;41079;52.856;6.534;2022-09-16T18:17:49;12.50;99.90
55207;DHT22;41079;52.856;6.534;2022-09-16T18:20:15;12.50;99.90
55207;DHT22;41079;52.856;6.534;2022-09-16T18:22:41;12.50;99.90
55207;DHT22;41079;52.856;6.534;2022-09-16T18:25:07;12.40;99.90
55207;DHT22;41079;52.856;6.534;2022-09-16T18:27:32;12.50;99.90
55207;DHT22;41079;52.856;6.534;2022-09-16T18:29:58;12.50;99.90
55207;DHT22;41079;52.856;6.534;2022-09-16T18:32:24;12.50;99.90
55207;DHT22;41079;52.856;6.534;2022-09-16T18:34:49;12.50;99.90
55207;DHT22;41079;52.856;6.534;2022-09-16T18:37:15;12.40;99.90
55207;DHT22;41079;52.856;6.534;2022-09-16T18:39:40;12.50;99.90
55207;DHT22;41079;52.856;6.534;2022-09-16T18:42:06;12.40;99.90
55207;DHT22;41079;52.856;6.534;2022-09-16T18:44:32;12.40;99.90
55207;DHT22;41079;52.856;6.534;2022-09-16T18:46:57;12.40;99.90